DTA564 FNBJ-DNMM
Flight info
| Callsign | DTA564 |
|---|---|
| Flight time | 2h 49m |
| Altitude | 38000 |
| Route | VBJ DCT VNA UR526 LV UG856 LAG |
| Aircraft | B737/M-SDE2E3FGHIRWXY/LB1 |
Departure
| Time | 2026-04-12 03:06 |
|---|---|
| Airport | Dr. Antonio Agostinho Neto International Airport (FNBJ) |
Arrival
| Time | 2026-04-12 05:55 |
|---|---|
| Airport | Murtala Muhammed International Airport (DNMM) |
| Time | Latitude | Longitude | Altitude | Speed | Heading |
|---|---|---|---|---|---|
| 2026-04-12 02:40 | -9.05367 | 13.49784 | 538 ft | 0 kts | 142° |
| 2026-04-12 02:49 | -9.05365 | 13.49783 | 538 ft | 3 kts | 142° |
| 2026-04-12 02:49 | -9.05355 | 13.49774 | 538 ft | 4 kts | 162° |
| 2026-04-12 02:50 | -9.05325 | 13.49775 | 538 ft | 0 kts | 210° |
| 2026-04-12 02:50 | -9.05322 | 13.49776 | 538 ft | 1 kts | 227° |
| 2026-04-12 02:50 | -9.05336 | 13.49758 | 545 ft | 4 kts | 232° |
| 2026-04-12 02:50 | -9.05354 | 13.49734 | 539 ft | 6 kts | 233° |
| 2026-04-12 02:51 | -9.05389 | 13.49686 | 539 ft | 11 kts | 232° |
| 2026-04-12 02:51 | -9.05448 | 13.49608 | 539 ft | 16 kts | 233° |
| 2026-04-12 02:51 | -9.05517 | 13.49610 | 540 ft | 12 kts | 142° |
| 2026-04-12 02:51 | -9.05593 | 13.49669 | 539 ft | 16 kts | 143° |
| 2026-04-12 02:52 | -9.05695 | 13.49746 | 539 ft | 20 kts | 142° |
| 2026-04-12 02:52 | -9.05818 | 13.49842 | 539 ft | 24 kts | 143° |
| 2026-04-12 02:52 | -9.05948 | 13.49941 | 540 ft | 23 kts | 142° |
| 2026-04-12 02:52 | -9.06051 | 13.50036 | 542 ft | 16 kts | 99° |
| 2026-04-12 02:53 | -9.05991 | 13.50132 | 543 ft | 18 kts | 53° |
| 2026-04-12 02:53 | -9.05910 | 13.50244 | 544 ft | 22 kts | 53° |
| 2026-04-12 02:53 | -9.05697 | 13.50534 | 544 ft | 29 kts | 53° |
| 2026-04-12 02:54 | -9.05571 | 13.50703 | 545 ft | 31 kts | 53° |
| 2026-04-12 02:54 | -9.05438 | 13.50883 | 545 ft | 32 kts | 53° |
| 2026-04-12 02:54 | -9.05326 | 13.51039 | 545 ft | 25 kts | 52° |
| 2026-04-12 02:54 | -9.05224 | 13.51173 | 545 ft | 23 kts | 53° |
| 2026-04-12 02:55 | -9.05129 | 13.51303 | 546 ft | 23 kts | 53° |
| 2026-04-12 02:55 | -9.05064 | 13.51391 | 546 ft | 15 kts | 54° |
| 2026-04-12 02:55 | -9.05000 | 13.51480 | 546 ft | 16 kts | 53° |
| 2026-04-12 02:55 | -9.04925 | 13.51582 | 548 ft | 20 kts | 54° |
| 2026-04-12 02:56 | -9.04893 | 13.51666 | 559 ft | 9 kts | 138° |
| 2026-04-12 02:56 | -9.04944 | 13.51702 | 561 ft | 9 kts | 145° |
| 2026-04-12 02:56 | -9.04997 | 13.51739 | 560 ft | 10 kts | 145° |
| 2026-04-12 02:56 | -9.05064 | 13.51758 | 565 ft | 8 kts | 214° |
| 2026-04-12 02:57 | -9.05073 | 13.51702 | 559 ft | 8 kts | 259° |
| 2026-04-12 02:57 | -9.05107 | 13.51652 | 559 ft | 13 kts | 232° |
| 2026-04-12 02:57 | -9.05298 | 13.51399 | 559 ft | 82 kts | 233° |
| 2026-04-12 02:57 | -9.05779 | 13.50753 | 561 ft | 145 kts | 233° |
| 2026-04-12 02:58 | -9.06323 | 13.50019 | 558 ft | 78 kts | 233° |
| 2026-04-12 02:58 | -9.06524 | 13.49747 | 556 ft | 40 kts | 233° |
| 2026-04-12 02:58 | -9.06681 | 13.49536 | 547 ft | 35 kts | 233° |
| 2026-04-12 02:58 | -9.06821 | 13.49349 | 544 ft | 32 kts | 233° |
| 2026-04-12 02:59 | -9.06948 | 13.49178 | 545 ft | 29 kts | 233° |
| 2026-04-12 02:59 | -9.07025 | 13.49015 | 544 ft | 23 kts | 285° |
| 2026-04-12 02:59 | -9.06904 | 13.48932 | 540 ft | 21 kts | 4° |
| 2026-04-12 02:59 | -9.06800 | 13.49031 | 540 ft | 21 kts | 54° |
| 2026-04-12 03:00 | -9.06710 | 13.49153 | 540 ft | 23 kts | 53° |
| 2026-04-12 03:00 | -9.06610 | 13.49289 | 545 ft | 25 kts | 53° |
| 2026-04-12 03:00 | -9.06504 | 13.49436 | 540 ft | 26 kts | 53° |
| 2026-04-12 03:00 | -9.06392 | 13.49586 | 542 ft | 27 kts | 53° |
| 2026-04-12 03:01 | -9.06281 | 13.49738 | 542 ft | 27 kts | 54° |
| 2026-04-12 03:01 | -9.06171 | 13.49887 | 543 ft | 26 kts | 53° |
| 2026-04-12 03:01 | -9.06065 | 13.50031 | 542 ft | 26 kts | 53° |
| 2026-04-12 03:01 | -9.05956 | 13.50179 | 543 ft | 27 kts | 53° |
| 2026-04-12 03:02 | -9.05843 | 13.50332 | 543 ft | 27 kts | 53° |
| 2026-04-12 03:02 | -9.05737 | 13.50477 | 544 ft | 26 kts | 53° |
| 2026-04-12 03:02 | -9.05631 | 13.50622 | 544 ft | 26 kts | 53° |
| 2026-04-12 03:02 | -9.05514 | 13.50780 | 545 ft | 29 kts | 53° |
| 2026-04-12 03:03 | -9.05383 | 13.50957 | 545 ft | 33 kts | 53° |
| 2026-04-12 03:03 | -9.05246 | 13.51146 | 545 ft | 35 kts | 53° |
| 2026-04-12 03:03 | -9.05101 | 13.51343 | 546 ft | 35 kts | 53° |
| 2026-04-12 03:03 | -9.04967 | 13.51524 | 547 ft | 29 kts | 53° |
| 2026-04-12 03:04 | -9.04868 | 13.51662 | 548 ft | 19 kts | 53° |
| 2026-04-12 03:04 | -9.04796 | 13.51770 | 555 ft | 17 kts | 70° |
| 2026-04-12 03:04 | -9.04861 | 13.51850 | 566 ft | 15 kts | 150° |
| 2026-04-12 03:04 | -9.04957 | 13.51850 | 564 ft | 15 kts | 217° |
| 2026-04-12 03:05 | -9.05014 | 13.51779 | 562 ft | 16 kts | 233° |
| 2026-04-12 03:05 | -9.05217 | 13.51509 | 560 ft | 85 kts | 232° |
| 2026-04-12 03:05 | -9.05708 | 13.50850 | 562 ft | 147 kts | 232° |
| 2026-04-12 03:05 | -9.06417 | 13.49928 | 811 ft | 174 kts | 231° |
| 2026-04-12 03:06 | -9.07140 | 13.48949 | 1573 ft | 173 kts | 229° |
| 2026-04-12 03:06 | -9.08036 | 13.48266 | 2467 ft | 158 kts | 194° |
| 2026-04-12 03:06 | -9.08772 | 13.48204 | 2781 ft | 168 kts | 169° |
| 2026-04-12 03:06 | -9.09884 | 13.48804 | 3056 ft | 197 kts | 140° |
| 2026-04-12 03:07 | -9.11301 | 13.50212 | 3326 ft | 232 kts | 126° |
| 2026-04-12 03:07 | -9.11884 | 13.51801 | 3616 ft | 258 kts | 95° |
| 2026-04-12 03:07 | -9.11566 | 13.53616 | 4254 ft | 269 kts | 66° |
| 2026-04-12 03:07 | -9.10403 | 13.55094 | 5114 ft | 272 kts | 38° |
| 2026-04-12 03:08 | -9.08681 | 13.55880 | 5969 ft | 277 kts | 12° |
| 2026-04-12 03:08 | -9.07370 | 13.55932 | 6522 ft | 282 kts | 355° |
| 2026-04-12 03:08 | -9.05523 | 13.55285 | 7272 ft | 292 kts | 330° |
| 2026-04-12 03:08 | -9.04011 | 13.53892 | 8056 ft | 299 kts | 310° |
| 2026-04-12 03:09 | -9.02768 | 13.52179 | 8879 ft | 304 kts | 306° |
| 2026-04-12 03:09 | -9.01586 | 13.50383 | 9746 ft | 308 kts | 304° |
| 2026-04-12 03:09 | -9.00400 | 13.48548 | 10434 ft | 318 kts | 304° |
| 2026-04-12 03:09 | -8.99138 | 13.46604 | 10663 ft | 343 kts | 304° |
| 2026-04-12 03:10 | -8.97795 | 13.44554 | 11178 ft | 355 kts | 304° |
| 2026-04-12 03:10 | -8.96415 | 13.42459 | 11957 ft | 358 kts | 304° |
| 2026-04-12 03:10 | -8.95042 | 13.40386 | 12788 ft | 360 kts | 304° |
| 2026-04-12 03:10 | -8.93639 | 13.38274 | 13598 ft | 363 kts | 304° |
| 2026-04-12 03:11 | -8.92225 | 13.36149 | 14304 ft | 366 kts | 304° |
| 2026-04-12 03:11 | -8.90794 | 13.33998 | 15020 ft | 370 kts | 304° |
| 2026-04-12 03:11 | -8.89351 | 13.31833 | 15730 ft | 373 kts | 304° |
| 2026-04-12 03:11 | -8.87897 | 13.29651 | 16454 ft | 375 kts | 304° |
| 2026-04-12 03:12 | -8.86443 | 13.27476 | 17137 ft | 379 kts | 306° |
| 2026-04-12 03:12 | -8.84669 | 13.25454 | 17818 ft | 382 kts | 319° |
| 2026-04-12 03:12 | -8.82527 | 13.23855 | 18491 ft | 384 kts | 330° |
| 2026-04-12 03:12 | -8.80106 | 13.22677 | 19086 ft | 386 kts | 337° |
| 2026-04-12 03:13 | -8.77613 | 13.21631 | 19667 ft | 390 kts | 338° |
| 2026-04-12 03:13 | -8.75079 | 13.20607 | 20214 ft | 394 kts | 339° |
| 2026-04-12 03:13 | -8.72517 | 13.19575 | 20787 ft | 397 kts | 339° |
| 2026-04-12 03:13 | -8.69946 | 13.18533 | 21358 ft | 399 kts | 338° |
| 2026-04-12 03:14 | -8.67361 | 13.17474 | 21914 ft | 402 kts | 338° |
| 2026-04-12 03:14 | -8.64761 | 13.16401 | 22440 ft | 406 kts | 338° |
| 2026-04-12 03:14 | -8.62130 | 13.15308 | 22950 ft | 409 kts | 338° |
| 2026-04-12 03:14 | -8.59491 | 13.14209 | 23474 ft | 412 kts | 338° |
| 2026-04-12 03:15 | -8.56832 | 13.13099 | 23886 ft | 415 kts | 338° |
| 2026-04-12 03:15 | -8.54151 | 13.11979 | 24241 ft | 419 kts | 338° |
| 2026-04-12 03:15 | -8.51440 | 13.10846 | 24650 ft | 422 kts | 338° |
| 2026-04-12 03:15 | -8.48715 | 13.09708 | 25019 ft | 426 kts | 338° |
| 2026-04-12 03:16 | -8.45967 | 13.08561 | 25407 ft | 429 kts | 338° |
| 2026-04-12 03:16 | -8.43238 | 13.07421 | 25791 ft | 431 kts | 338° |
| 2026-04-12 03:16 | -8.40449 | 13.06257 | 26163 ft | 435 kts | 338° |
| 2026-04-12 03:16 | -8.37644 | 13.05086 | 26533 ft | 438 kts | 338° |
| 2026-04-12 03:17 | -8.34818 | 13.03907 | 26899 ft | 441 kts | 338° |
| 2026-04-12 03:17 | -8.31977 | 13.02722 | 27267 ft | 443 kts | 338° |
| 2026-04-12 03:17 | -8.29115 | 13.01528 | 27616 ft | 447 kts | 337° |
| 2026-04-12 03:17 | -8.26230 | 13.00324 | 27971 ft | 449 kts | 337° |
| 2026-04-12 03:18 | -8.23328 | 12.99115 | 28278 ft | 453 kts | 337° |
| 2026-04-12 03:18 | -8.20410 | 12.97898 | 28609 ft | 456 kts | 337° |
| 2026-04-12 03:18 | -8.17471 | 12.96673 | 28949 ft | 458 kts | 337° |
| 2026-04-12 03:18 | -8.14516 | 12.95441 | 29269 ft | 461 kts | 337° |
| 2026-04-12 03:19 | -8.11542 | 12.94202 | 29534 ft | 464 kts | 337° |
| 2026-04-12 03:19 | -8.08549 | 12.92955 | 29835 ft | 467 kts | 337° |
| 2026-04-12 03:19 | -8.05545 | 12.91703 | 30121 ft | 469 kts | 337° |
| 2026-04-12 03:19 | -8.02517 | 12.90442 | 30395 ft | 470 kts | 337° |
| 2026-04-12 03:20 | -7.99492 | 12.89183 | 30659 ft | 472 kts | 337° |
| 2026-04-12 03:20 | -7.96441 | 12.87912 | 30906 ft | 474 kts | 337° |
| 2026-04-12 03:20 | -7.93384 | 12.86639 | 31172 ft | 476 kts | 337° |
| 2026-04-12 03:20 | -7.90326 | 12.85366 | 31492 ft | 476 kts | 337° |
| 2026-04-12 03:21 | -7.87271 | 12.84095 | 31875 ft | 474 kts | 337° |
| 2026-04-12 03:21 | -7.84262 | 12.82844 | 32273 ft | 473 kts | 336° |
| 2026-04-12 03:21 | -7.81191 | 12.81567 | 32671 ft | 471 kts | 336° |
| 2026-04-12 03:21 | -7.78165 | 12.80308 | 33061 ft | 470 kts | 336° |
| 2026-04-12 03:22 | -7.75173 | 12.79063 | 33466 ft | 469 kts | 336° |
| 2026-04-12 03:22 | -7.72163 | 12.77812 | 33877 ft | 468 kts | 336° |
| 2026-04-12 03:22 | -7.69154 | 12.76561 | 34243 ft | 466 kts | 336° |
| 2026-04-12 03:22 | -7.66153 | 12.75313 | 34593 ft | 465 kts | 336° |
| 2026-04-12 03:23 | -7.63167 | 12.74072 | 34933 ft | 464 kts | 336° |
| 2026-04-12 03:23 | -7.60189 | 12.72834 | 35257 ft | 463 kts | 336° |
| 2026-04-12 03:23 | -7.57212 | 12.71597 | 35571 ft | 462 kts | 336° |
| 2026-04-12 03:23 | -7.54248 | 12.70366 | 35901 ft | 460 kts | 336° |
| 2026-04-12 03:24 | -7.51296 | 12.69140 | 36203 ft | 459 kts | 336° |
| 2026-04-12 03:24 | -7.48342 | 12.67913 | 36520 ft | 458 kts | 336° |
| 2026-04-12 03:24 | -7.45397 | 12.66690 | 36783 ft | 458 kts | 336° |
| 2026-04-12 03:24 | -7.42447 | 12.65465 | 37021 ft | 458 kts | 336° |
| 2026-04-12 03:25 | -7.39501 | 12.64241 | 37278 ft | 458 kts | 336° |
| 2026-04-12 03:25 | -7.36553 | 12.63018 | 37537 ft | 458 kts | 336° |
| 2026-04-12 03:25 | -7.33606 | 12.61795 | 37791 ft | 457 kts | 336° |
| 2026-04-12 03:25 | -7.30663 | 12.60573 | 37885 ft | 460 kts | 336° |
| 2026-04-12 03:26 | -7.24674 | 12.58087 | 37891 ft | 469 kts | 336° |
| 2026-04-12 03:26 | -7.18596 | 12.55566 | 37904 ft | 475 kts | 336° |
| 2026-04-12 03:27 | -7.12449 | 12.53017 | 37894 ft | 480 kts | 336° |
| 2026-04-12 03:27 | -7.06255 | 12.50450 | 37893 ft | 482 kts | 336° |
| 2026-04-12 03:28 | -7.00095 | 12.47897 | 37877 ft | 481 kts | 336° |
| 2026-04-12 03:28 | -6.93906 | 12.45332 | 37887 ft | 480 kts | 336° |
| 2026-04-12 03:29 | -6.87729 | 12.42772 | 37893 ft | 480 kts | 336° |
| 2026-04-12 03:29 | -6.81543 | 12.40208 | 37885 ft | 480 kts | 336° |
| 2026-04-12 03:30 | -6.75381 | 12.37654 | 38053 ft | 477 kts | 336° |
| 2026-04-12 03:30 | -6.72314 | 12.36383 | 38207 ft | 476 kts | 336° |
| 2026-04-12 03:30 | -6.69256 | 12.35116 | 38357 ft | 475 kts | 336° |
| 2026-04-12 03:31 | -6.66200 | 12.33851 | 38515 ft | 473 kts | 336° |
| 2026-04-12 03:31 | -6.63161 | 12.32592 | 38651 ft | 472 kts | 336° |
| 2026-04-12 03:31 | -6.60129 | 12.31337 | 38783 ft | 471 kts | 336° |
| 2026-04-12 03:31 | -6.57097 | 12.30081 | 38923 ft | 470 kts | 336° |
| 2026-04-12 03:32 | -6.54080 | 12.28832 | 39056 ft | 469 kts | 336° |
| 2026-04-12 03:32 | -6.51069 | 12.27586 | 39195 ft | 468 kts | 336° |
| 2026-04-12 03:32 | -6.48057 | 12.26339 | 39333 ft | 467 kts | 336° |
| 2026-04-12 03:32 | -6.45052 | 12.25095 | 39462 ft | 467 kts | 336° |
| 2026-04-12 03:33 | -6.42049 | 12.23852 | 39606 ft | 466 kts | 336° |
| 2026-04-12 03:33 | -6.39048 | 12.22610 | 39751 ft | 466 kts | 336° |
| 2026-04-12 03:33 | -6.36059 | 12.21374 | 39862 ft | 465 kts | 336° |
| 2026-04-12 03:33 | -6.33098 | 12.20149 | 39879 ft | 467 kts | 336° |
| 2026-04-12 03:34 | -6.27066 | 12.17654 | 39897 ft | 470 kts | 336° |
| 2026-04-12 03:34 | -6.20997 | 12.15145 | 39896 ft | 473 kts | 336° |
| 2026-04-12 03:35 | -6.14903 | 12.12626 | 39884 ft | 474 kts | 336° |
| 2026-04-12 03:35 | -6.08797 | 12.10103 | 39883 ft | 474 kts | 336° |
| 2026-04-12 03:36 | -6.02709 | 12.07588 | 39887 ft | 473 kts | 336° |
| 2026-04-12 03:36 | -5.96623 | 12.05074 | 39889 ft | 473 kts | 336° |
| 2026-04-12 03:37 | -5.90543 | 12.02563 | 39889 ft | 472 kts | 336° |
| 2026-04-12 03:37 | -5.84461 | 12.00052 | 39887 ft | 472 kts | 336° |
| 2026-04-12 03:38 | -5.78381 | 11.97543 | 39889 ft | 472 kts | 336° |
| 2026-04-12 03:38 | -5.72294 | 11.95030 | 39889 ft | 473 kts | 336° |
| 2026-04-12 03:39 | -5.66206 | 11.92519 | 39886 ft | 473 kts | 336° |
| 2026-04-12 03:39 | -5.60116 | 11.90007 | 39888 ft | 474 kts | 336° |
| 2026-04-12 03:40 | -5.54054 | 11.87507 | 39884 ft | 474 kts | 336° |
| 2026-04-12 03:40 | -5.47949 | 11.84990 | 39888 ft | 475 kts | 336° |
| 2026-04-12 03:41 | -5.41833 | 11.82469 | 39895 ft | 475 kts | 337° |
| 2026-04-12 03:41 | -5.35715 | 11.79948 | 39890 ft | 476 kts | 336° |
| 2026-04-12 03:42 | -5.29579 | 11.77419 | 39884 ft | 476 kts | 337° |
| 2026-04-12 03:42 | -5.23444 | 11.74891 | 39886 ft | 477 kts | 337° |
| 2026-04-12 03:43 | -5.17302 | 11.72361 | 39883 ft | 477 kts | 337° |
| 2026-04-12 03:43 | -5.11153 | 11.69829 | 39887 ft | 478 kts | 337° |
| 2026-04-12 03:44 | -5.04994 | 11.67286 | 39899 ft | 478 kts | 337° |
| 2026-04-12 03:44 | -4.98838 | 11.64742 | 39887 ft | 478 kts | 337° |
| 2026-04-12 03:45 | -4.92692 | 11.62203 | 39887 ft | 478 kts | 337° |
| 2026-04-12 03:45 | -4.86580 | 11.59678 | 39903 ft | 478 kts | 337° |
| 2026-04-12 03:46 | -4.80444 | 11.57144 | 39887 ft | 477 kts | 337° |
| 2026-04-12 03:46 | -4.74315 | 11.54614 | 39886 ft | 476 kts | 337° |
| 2026-04-12 03:47 | -4.68191 | 11.52086 | 39887 ft | 476 kts | 337° |
| 2026-04-12 03:47 | -4.62064 | 11.49557 | 39887 ft | 476 kts | 337° |
| 2026-04-12 03:48 | -4.55935 | 11.47028 | 39887 ft | 476 kts | 337° |
| 2026-04-12 03:48 | -4.49803 | 11.44498 | 39896 ft | 477 kts | 337° |
| 2026-04-12 03:49 | -4.43667 | 11.41967 | 39892 ft | 477 kts | 337° |
| 2026-04-12 03:49 | -4.37521 | 11.39433 | 39898 ft | 478 kts | 337° |
| 2026-04-12 03:50 | -4.31370 | 11.36896 | 39891 ft | 478 kts | 337° |
| 2026-04-12 03:50 | -4.25208 | 11.34356 | 39890 ft | 479 kts | 337° |
| 2026-04-12 03:51 | -4.19043 | 11.31815 | 39894 ft | 479 kts | 337° |
| 2026-04-12 03:51 | -4.13906 | 11.29698 | 39894 ft | 480 kts | 337° |
| 2026-04-12 03:52 | -4.07723 | 11.27149 | 39895 ft | 481 kts | 338° |
| 2026-04-12 03:52 | -4.01527 | 11.24596 | 39894 ft | 481 kts | 338° |
| 2026-04-12 03:53 | -3.95337 | 11.22046 | 39894 ft | 482 kts | 338° |
| 2026-04-12 03:53 | -3.89134 | 11.19494 | 39893 ft | 482 kts | 338° |
| 2026-04-12 03:54 | -3.82968 | 11.16959 | 39896 ft | 482 kts | 338° |
| 2026-04-12 03:54 | -3.76753 | 11.14403 | 39895 ft | 483 kts | 338° |
| 2026-04-12 03:55 | -3.70542 | 11.11849 | 39896 ft | 483 kts | 338° |
| 2026-04-12 03:55 | -3.64326 | 11.09292 | 39896 ft | 483 kts | 338° |
| 2026-04-12 03:56 | -3.58105 | 11.06734 | 39896 ft | 482 kts | 338° |
| 2026-04-12 03:56 | -3.51904 | 11.04185 | 39899 ft | 482 kts | 338° |
| 2026-04-12 03:57 | -3.45698 | 11.01634 | 39903 ft | 482 kts | 338° |
| 2026-04-12 03:57 | -3.39496 | 10.99085 | 39903 ft | 482 kts | 338° |
| 2026-04-12 03:58 | -3.33290 | 10.96535 | 39899 ft | 482 kts | 338° |
| 2026-04-12 03:58 | -3.27084 | 10.93985 | 39903 ft | 482 kts | 338° |
| 2026-04-12 03:59 | -3.20878 | 10.91435 | 39901 ft | 482 kts | 338° |
| 2026-04-12 03:59 | -3.14678 | 10.88887 | 39898 ft | 481 kts | 338° |
| 2026-04-12 04:00 | -3.08496 | 10.86348 | 39891 ft | 479 kts | 338° |
| 2026-04-12 04:00 | -3.02335 | 10.83819 | 39910 ft | 478 kts | 338° |
| 2026-04-12 04:01 | -2.96212 | 10.81305 | 39900 ft | 478 kts | 338° |
| 2026-04-12 04:01 | -2.90070 | 10.78783 | 39892 ft | 477 kts | 338° |
| 2026-04-12 04:02 | -2.80870 | 10.75005 | 39894 ft | 476 kts | 338° |
| 2026-04-12 04:03 | -2.74740 | 10.72489 | 39899 ft | 476 kts | 338° |
| 2026-04-12 04:03 | -2.68611 | 10.69973 | 39895 ft | 476 kts | 338° |
| 2026-04-12 04:04 | -2.62475 | 10.67454 | 39897 ft | 477 kts | 338° |
| 2026-04-12 04:04 | -2.56336 | 10.64935 | 39898 ft | 477 kts | 338° |
| 2026-04-12 04:05 | -2.50191 | 10.62413 | 39898 ft | 477 kts | 338° |
| 2026-04-12 04:05 | -2.44040 | 10.59889 | 39899 ft | 478 kts | 338° |
| 2026-04-12 04:06 | -2.37887 | 10.57364 | 39897 ft | 478 kts | 338° |
| 2026-04-12 04:06 | -2.31729 | 10.54838 | 39903 ft | 478 kts | 338° |
| 2026-04-12 04:07 | -2.25567 | 10.52310 | 39903 ft | 479 kts | 338° |
| 2026-04-12 04:07 | -2.19451 | 10.49801 | 39897 ft | 479 kts | 338° |
| 2026-04-12 04:08 | -2.13282 | 10.47270 | 39897 ft | 479 kts | 338° |
| 2026-04-12 04:08 | -2.07117 | 10.44741 | 39898 ft | 479 kts | 338° |
| 2026-04-12 04:09 | -2.00950 | 10.42200 | 39902 ft | 479 kts | 338° |
| 2026-04-12 04:09 | -1.94789 | 10.39646 | 39897 ft | 480 kts | 338° |
| 2026-04-12 04:10 | -1.88616 | 10.37088 | 39899 ft | 480 kts | 338° |
| 2026-04-12 04:10 | -1.82431 | 10.34530 | 39892 ft | 481 kts | 338° |
| 2026-04-12 04:11 | -1.76235 | 10.31994 | 39893 ft | 481 kts | 338° |
| 2026-04-12 04:11 | -1.70030 | 10.29459 | 39892 ft | 482 kts | 338° |
| 2026-04-12 04:12 | -1.63825 | 10.26923 | 39892 ft | 482 kts | 338° |
| 2026-04-12 04:12 | -1.57611 | 10.24380 | 39896 ft | 482 kts | 338° |
| 2026-04-12 04:13 | -1.51413 | 10.21843 | 39889 ft | 481 kts | 338° |
| 2026-04-12 04:13 | -1.45223 | 10.19309 | 39890 ft | 480 kts | 338° |
| 2026-04-12 04:14 | -1.39078 | 10.16795 | 39885 ft | 479 kts | 338° |
| 2026-04-12 04:14 | -1.32911 | 10.14271 | 39890 ft | 479 kts | 338° |
| 2026-04-12 04:15 | -1.26754 | 10.11752 | 39889 ft | 478 kts | 338° |
| 2026-04-12 04:15 | -1.20591 | 10.09230 | 39889 ft | 478 kts | 338° |
| 2026-04-12 04:16 | -1.14428 | 10.06709 | 39887 ft | 477 kts | 338° |
| 2026-04-12 04:16 | -1.08283 | 10.04194 | 39885 ft | 477 kts | 338° |
| 2026-04-12 04:17 | -1.02134 | 10.01679 | 39886 ft | 477 kts | 338° |
| 2026-04-12 04:17 | -0.96030 | 9.99182 | 39889 ft | 477 kts | 338° |
| 2026-04-12 04:18 | -0.89890 | 9.96670 | 39887 ft | 477 kts | 338° |
| 2026-04-12 04:18 | -0.83747 | 9.94157 | 39888 ft | 477 kts | 338° |
| 2026-04-12 04:19 | -0.77601 | 9.91643 | 39894 ft | 477 kts | 338° |
| 2026-04-12 04:19 | -0.71471 | 9.89135 | 39888 ft | 476 kts | 338° |
| 2026-04-12 04:20 | -0.65331 | 9.86623 | 39886 ft | 476 kts | 338° |
| 2026-04-12 04:20 | -0.59197 | 9.84114 | 39893 ft | 476 kts | 338° |
| 2026-04-12 04:21 | -0.53063 | 9.81602 | 39900 ft | 476 kts | 338° |
| 2026-04-12 04:21 | -0.46932 | 9.79091 | 39887 ft | 476 kts | 338° |
| 2026-04-12 04:22 | -0.40798 | 9.76578 | 39884 ft | 476 kts | 338° |
| 2026-04-12 04:22 | -0.34663 | 9.74065 | 39885 ft | 476 kts | 338° |
| 2026-04-12 04:23 | -0.28531 | 9.71553 | 39886 ft | 476 kts | 338° |
| 2026-04-12 04:23 | -0.22437 | 9.69056 | 39899 ft | 476 kts | 338° |
| 2026-04-12 04:24 | -0.16310 | 9.66547 | 39890 ft | 476 kts | 338° |
| 2026-04-12 04:24 | -0.10189 | 9.64039 | 39886 ft | 476 kts | 338° |
| 2026-04-12 04:25 | -0.04064 | 9.61530 | 39897 ft | 475 kts | 338° |
| 2026-04-12 04:25 | 0.02050 | 9.59026 | 39890 ft | 475 kts | 338° |
| 2026-04-12 04:26 | 0.08174 | 9.56517 | 39886 ft | 475 kts | 338° |
| 2026-04-12 04:26 | 0.14286 | 9.54013 | 39889 ft | 475 kts | 338° |
| 2026-04-12 04:27 | 0.20402 | 9.51508 | 39887 ft | 475 kts | 338° |
| 2026-04-12 04:27 | 0.26516 | 9.49003 | 39883 ft | 475 kts | 338° |
| 2026-04-12 04:28 | 0.32630 | 9.46498 | 39896 ft | 475 kts | 338° |
| 2026-04-12 04:28 | 0.38744 | 9.43993 | 39884 ft | 475 kts | 338° |
| 2026-04-12 04:29 | 0.44853 | 9.41482 | 39895 ft | 475 kts | 336° |
| 2026-04-12 04:29 | 0.50442 | 9.37990 | 39880 ft | 475 kts | 317° |
| 2026-04-12 04:30 | 0.55189 | 9.33404 | 39890 ft | 475 kts | 315° |
| 2026-04-12 04:30 | 0.59846 | 9.28780 | 39882 ft | 475 kts | 315° |
| 2026-04-12 04:31 | 0.64569 | 9.24152 | 39882 ft | 476 kts | 315° |
| 2026-04-12 04:31 | 0.69317 | 9.19544 | 39887 ft | 476 kts | 315° |
| 2026-04-12 04:32 | 0.74112 | 9.14902 | 39891 ft | 476 kts | 315° |
| 2026-04-12 04:32 | 0.78864 | 9.10299 | 39895 ft | 476 kts | 315° |
| 2026-04-12 04:33 | 0.83582 | 9.05728 | 39878 ft | 475 kts | 315° |
| 2026-04-12 04:33 | 0.88359 | 9.01098 | 39882 ft | 475 kts | 315° |
| 2026-04-12 04:34 | 0.93077 | 8.96525 | 39884 ft | 475 kts | 316° |
| 2026-04-12 04:34 | 0.97823 | 8.91925 | 39889 ft | 476 kts | 316° |
| 2026-04-12 04:35 | 1.02603 | 8.87292 | 39887 ft | 476 kts | 316° |
| 2026-04-12 04:35 | 1.07324 | 8.82714 | 39882 ft | 476 kts | 316° |
| 2026-04-12 04:36 | 1.12076 | 8.78107 | 39896 ft | 476 kts | 316° |
| 2026-04-12 04:36 | 1.16833 | 8.73495 | 39882 ft | 476 kts | 316° |
| 2026-04-12 04:37 | 1.20786 | 8.69663 | 39882 ft | 477 kts | 316° |
| 2026-04-12 04:37 | 1.25555 | 8.65043 | 39894 ft | 477 kts | 316° |
| 2026-04-12 04:38 | 1.30324 | 8.60422 | 39883 ft | 478 kts | 316° |
| 2026-04-12 04:38 | 1.35096 | 8.55797 | 39888 ft | 478 kts | 316° |
| 2026-04-12 04:39 | 1.39876 | 8.51164 | 39882 ft | 478 kts | 316° |
| 2026-04-12 04:39 | 1.44650 | 8.46535 | 39887 ft | 479 kts | 316° |
| 2026-04-12 04:40 | 1.49433 | 8.41897 | 39881 ft | 479 kts | 316° |
| 2026-04-12 04:40 | 1.54212 | 8.37264 | 39884 ft | 478 kts | 316° |
| 2026-04-12 04:41 | 1.58983 | 8.32638 | 39884 ft | 477 kts | 316° |
| 2026-04-12 04:41 | 1.63742 | 8.28023 | 39882 ft | 477 kts | 316° |
| 2026-04-12 04:42 | 1.68501 | 8.23407 | 39877 ft | 476 kts | 316° |
| 2026-04-12 04:42 | 1.73257 | 8.18794 | 39879 ft | 476 kts | 316° |
| 2026-04-12 04:43 | 1.80384 | 8.11881 | 39878 ft | 476 kts | 316° |
| 2026-04-12 04:43 | 1.85102 | 8.07303 | 39888 ft | 476 kts | 316° |
| 2026-04-12 04:44 | 1.89881 | 8.02666 | 39892 ft | 476 kts | 316° |
| 2026-04-12 04:44 | 1.94635 | 7.98061 | 39884 ft | 476 kts | 316° |
| 2026-04-12 04:45 | 1.99397 | 7.93466 | 39880 ft | 476 kts | 316° |
| 2026-04-12 04:45 | 2.04130 | 7.88900 | 39879 ft | 476 kts | 316° |
| 2026-04-12 04:46 | 2.08923 | 7.84273 | 39879 ft | 476 kts | 316° |
| 2026-04-12 04:46 | 2.13652 | 7.79705 | 39878 ft | 476 kts | 316° |
| 2026-04-12 04:47 | 2.18420 | 7.75099 | 39881 ft | 476 kts | 316° |
| 2026-04-12 04:47 | 2.23187 | 7.70494 | 39878 ft | 477 kts | 316° |
| 2026-04-12 04:48 | 2.27954 | 7.65888 | 39878 ft | 477 kts | 316° |
| 2026-04-12 04:48 | 2.32728 | 7.61275 | 39882 ft | 477 kts | 316° |
| 2026-04-12 04:49 | 2.37498 | 7.56664 | 39876 ft | 474 kts | 317° |
| 2026-04-12 04:49 | 2.42217 | 7.52104 | 39887 ft | 471 kts | 317° |
| 2026-04-12 04:50 | 2.46933 | 7.47545 | 39878 ft | 472 kts | 317° |
| 2026-04-12 04:50 | 2.51656 | 7.42979 | 39882 ft | 472 kts | 317° |
| 2026-04-12 04:51 | 2.56367 | 7.38395 | 39885 ft | 473 kts | 316° |
| 2026-04-12 04:51 | 2.61028 | 7.33814 | 39882 ft | 473 kts | 316° |
| 2026-04-12 04:52 | 2.65718 | 7.29202 | 39883 ft | 473 kts | 316° |
| 2026-04-12 04:52 | 2.70416 | 7.24588 | 39879 ft | 473 kts | 316° |
| 2026-04-12 04:53 | 2.75118 | 7.19972 | 39882 ft | 473 kts | 316° |
| 2026-04-12 04:54 | 2.82169 | 7.13051 | 39884 ft | 473 kts | 316° |
| 2026-04-12 04:54 | 2.86872 | 7.08433 | 39880 ft | 474 kts | 316° |
| 2026-04-12 04:55 | 2.91579 | 7.03810 | 39881 ft | 474 kts | 316° |
| 2026-04-12 04:55 | 2.96283 | 6.99190 | 39892 ft | 474 kts | 316° |
| 2026-04-12 04:56 | 3.00955 | 6.94601 | 39887 ft | 474 kts | 316° |
| 2026-04-12 04:56 | 3.05657 | 6.89981 | 39881 ft | 474 kts | 316° |
| 2026-04-12 04:57 | 3.10367 | 6.85352 | 39881 ft | 474 kts | 316° |
| 2026-04-12 04:57 | 3.15072 | 6.80727 | 39883 ft | 474 kts | 316° |
| 2026-04-12 04:58 | 3.19780 | 6.76117 | 39883 ft | 474 kts | 317° |
| 2026-04-12 04:58 | 3.24533 | 6.71531 | 39892 ft | 474 kts | 317° |
| 2026-04-12 04:59 | 3.29282 | 6.66956 | 39888 ft | 474 kts | 317° |
| 2026-04-12 04:59 | 3.34032 | 6.62373 | 39885 ft | 474 kts | 317° |
| 2026-04-12 05:00 | 3.38740 | 6.57822 | 39893 ft | 474 kts | 317° |
| 2026-04-12 05:00 | 3.43482 | 6.53238 | 39878 ft | 474 kts | 317° |
| 2026-04-12 05:01 | 3.48230 | 6.48647 | 39886 ft | 474 kts | 317° |
| 2026-04-12 05:01 | 3.52977 | 6.44058 | 39889 ft | 474 kts | 317° |
| 2026-04-12 05:02 | 3.57723 | 6.39467 | 39880 ft | 475 kts | 317° |
| 2026-04-12 05:02 | 3.62475 | 6.34872 | 39884 ft | 475 kts | 317° |
| 2026-04-12 05:03 | 3.67222 | 6.30279 | 39883 ft | 474 kts | 317° |
| 2026-04-12 05:03 | 3.71937 | 6.25716 | 39886 ft | 474 kts | 317° |
| 2026-04-12 05:04 | 3.76673 | 6.21133 | 39878 ft | 474 kts | 317° |
| 2026-04-12 05:04 | 3.81409 | 6.16548 | 39888 ft | 473 kts | 317° |
| 2026-04-12 05:05 | 3.86140 | 6.11964 | 39888 ft | 473 kts | 316° |
| 2026-04-12 05:05 | 3.90865 | 6.07366 | 39892 ft | 473 kts | 316° |
| 2026-04-12 05:06 | 3.95589 | 6.02767 | 39890 ft | 474 kts | 316° |
| 2026-04-12 05:06 | 4.00317 | 5.98162 | 39883 ft | 474 kts | 316° |
| 2026-04-12 05:07 | 4.05048 | 5.93556 | 39891 ft | 474 kts | 316° |
| 2026-04-12 05:07 | 4.09771 | 5.88957 | 39879 ft | 474 kts | 316° |
| 2026-04-12 05:08 | 4.14468 | 5.84382 | 39886 ft | 474 kts | 316° |
| 2026-04-12 05:08 | 4.19195 | 5.79777 | 39879 ft | 473 kts | 316° |
| 2026-04-12 05:09 | 4.23924 | 5.75168 | 39884 ft | 473 kts | 316° |
| 2026-04-12 05:09 | 4.28635 | 5.70577 | 39892 ft | 473 kts | 316° |
| 2026-04-12 05:10 | 4.33345 | 5.65986 | 39888 ft | 472 kts | 316° |
| 2026-04-12 05:10 | 4.38046 | 5.61404 | 39883 ft | 471 kts | 316° |
| 2026-04-12 05:11 | 4.42736 | 5.56833 | 39883 ft | 470 kts | 316° |
| 2026-04-12 05:11 | 4.47415 | 5.52270 | 39884 ft | 469 kts | 316° |
| 2026-04-12 05:12 | 4.52080 | 5.47718 | 39885 ft | 468 kts | 316° |
| 2026-04-12 05:12 | 4.56745 | 5.43167 | 39888 ft | 467 kts | 316° |
| 2026-04-12 05:13 | 4.61366 | 5.38657 | 39886 ft | 466 kts | 316° |
| 2026-04-12 05:13 | 4.66007 | 5.34126 | 39887 ft | 466 kts | 316° |
| 2026-04-12 05:14 | 4.70649 | 5.29594 | 39891 ft | 465 kts | 316° |
| 2026-04-12 05:14 | 4.75274 | 5.25077 | 39883 ft | 464 kts | 316° |
| 2026-04-12 05:15 | 4.79895 | 5.20564 | 39888 ft | 463 kts | 316° |
| 2026-04-12 05:15 | 4.84506 | 5.16047 | 39887 ft | 463 kts | 316° |
| 2026-04-12 05:16 | 4.89111 | 5.11520 | 39887 ft | 463 kts | 316° |
| 2026-04-12 05:16 | 4.93716 | 5.06989 | 39887 ft | 464 kts | 316° |
| 2026-04-12 05:17 | 4.98319 | 5.02463 | 39890 ft | 464 kts | 316° |
| 2026-04-12 05:17 | 5.02908 | 4.97949 | 39885 ft | 465 kts | 316° |
| 2026-04-12 05:18 | 5.07532 | 4.93401 | 39887 ft | 465 kts | 316° |
| 2026-04-12 05:18 | 5.12154 | 4.88853 | 39887 ft | 466 kts | 315° |
| 2026-04-12 05:19 | 5.16792 | 4.84289 | 39887 ft | 466 kts | 315° |
| 2026-04-12 05:19 | 5.21424 | 4.79730 | 39883 ft | 467 kts | 315° |
| 2026-04-12 05:20 | 5.26063 | 4.75163 | 39885 ft | 467 kts | 315° |
| 2026-04-12 05:20 | 5.30704 | 4.70592 | 39886 ft | 467 kts | 315° |
| 2026-04-12 05:21 | 5.35309 | 4.66056 | 39883 ft | 466 kts | 315° |
| 2026-04-12 05:21 | 5.39938 | 4.61495 | 39887 ft | 466 kts | 315° |
| 2026-04-12 05:22 | 5.44569 | 4.56932 | 39887 ft | 467 kts | 315° |
| 2026-04-12 05:22 | 5.49204 | 4.52364 | 39886 ft | 467 kts | 315° |
| 2026-04-12 05:23 | 5.53842 | 4.47791 | 39891 ft | 468 kts | 315° |
| 2026-04-12 05:23 | 5.58487 | 4.43211 | 39884 ft | 468 kts | 315° |
| 2026-04-12 05:24 | 5.63129 | 4.38632 | 39894 ft | 467 kts | 315° |
| 2026-04-12 05:24 | 5.67731 | 4.34091 | 39895 ft | 466 kts | 315° |
| 2026-04-12 05:25 | 5.72357 | 4.29526 | 39886 ft | 466 kts | 315° |
| 2026-04-12 05:25 | 5.76979 | 4.24963 | 39888 ft | 466 kts | 315° |
| 2026-04-12 05:26 | 5.81555 | 4.20445 | 39722 ft | 454 kts | 315° |
| 2026-04-12 05:26 | 5.83783 | 4.18244 | 39475 ft | 445 kts | 315° |
| 2026-04-12 05:26 | 5.85267 | 4.16778 | 39260 ft | 440 kts | 315° |
| 2026-04-12 05:26 | 5.88133 | 4.13947 | 38788 ft | 434 kts | 315° |
| 2026-04-12 05:27 | 5.90275 | 4.11830 | 38332 ft | 431 kts | 316° |
| 2026-04-12 05:27 | 5.91719 | 4.10404 | 37987 ft | 429 kts | 316° |
| 2026-04-12 05:27 | 5.93844 | 4.08305 | 37430 ft | 428 kts | 317° |
| 2026-04-12 05:27 | 5.96069 | 4.06375 | 36803 ft | 429 kts | 321° |
| 2026-04-12 05:28 | 5.98420 | 4.04508 | 36110 ft | 431 kts | 323° |
| 2026-04-12 05:28 | 6.00806 | 4.02678 | 35451 ft | 432 kts | 324° |
| 2026-04-12 05:28 | 6.03208 | 4.00854 | 34804 ft | 433 kts | 324° |
| 2026-04-12 05:28 | 6.05611 | 3.99028 | 34176 ft | 433 kts | 324° |
| 2026-04-12 05:29 | 6.08005 | 3.97198 | 33504 ft | 433 kts | 324° |
| 2026-04-12 05:29 | 6.10403 | 3.95357 | 32809 ft | 433 kts | 324° |
| 2026-04-12 05:29 | 6.12794 | 3.93513 | 32122 ft | 433 kts | 324° |
| 2026-04-12 05:29 | 6.15181 | 3.91669 | 31462 ft | 433 kts | 324° |
| 2026-04-12 05:30 | 6.17571 | 3.89820 | 30805 ft | 433 kts | 324° |
| 2026-04-12 05:30 | 6.19951 | 3.87977 | 30178 ft | 432 kts | 324° |
| 2026-04-12 05:30 | 6.22350 | 3.86151 | 29474 ft | 432 kts | 326° |
| 2026-04-12 05:30 | 6.24826 | 3.84456 | 28755 ft | 430 kts | 328° |
| 2026-04-12 05:31 | 6.27336 | 3.82837 | 28047 ft | 428 kts | 329° |
| 2026-04-12 05:31 | 6.29847 | 3.81242 | 27366 ft | 426 kts | 329° |
| 2026-04-12 05:31 | 6.32345 | 3.79645 | 26695 ft | 425 kts | 329° |
| 2026-04-12 05:31 | 6.34829 | 3.78042 | 26040 ft | 423 kts | 329° |
| 2026-04-12 05:32 | 6.37261 | 3.76457 | 25410 ft | 422 kts | 329° |
| 2026-04-12 05:32 | 6.39720 | 3.74847 | 24782 ft | 420 kts | 329° |
| 2026-04-12 05:32 | 6.41422 | 3.73731 | 24353 ft | 419 kts | 329° |
| 2026-04-12 05:32 | 6.43765 | 3.72191 | 23782 ft | 418 kts | 329° |
| 2026-04-12 05:33 | 6.46194 | 3.70596 | 23116 ft | 417 kts | 329° |
| 2026-04-12 05:33 | 6.48618 | 3.69004 | 22412 ft | 415 kts | 329° |
| 2026-04-12 05:33 | 6.51028 | 3.67422 | 21754 ft | 412 kts | 329° |
| 2026-04-12 05:33 | 6.53418 | 3.65853 | 21178 ft | 408 kts | 329° |
| 2026-04-12 05:34 | 6.55846 | 3.64424 | 20582 ft | 402 kts | 339° |
| 2026-04-12 05:34 | 6.58511 | 3.63728 | 20022 ft | 391 kts | 357° |
| 2026-04-12 05:34 | 6.61152 | 3.63863 | 19465 ft | 373 kts | 15° |
| 2026-04-12 05:34 | 6.63531 | 3.64747 | 18920 ft | 357 kts | 32° |
| 2026-04-12 05:35 | 6.65474 | 3.66204 | 18388 ft | 343 kts | 48° |
| 2026-04-12 05:35 | 6.66896 | 3.68056 | 17904 ft | 328 kts | 63° |
| 2026-04-12 05:35 | 6.67760 | 3.70097 | 17399 ft | 316 kts | 76° |
| 2026-04-12 05:35 | 6.68090 | 3.72273 | 16890 ft | 306 kts | 90° |
| 2026-04-12 05:36 | 6.67897 | 3.74357 | 16419 ft | 304 kts | 103° |
| 2026-04-12 05:36 | 6.67224 | 3.76362 | 16012 ft | 302 kts | 114° |
| 2026-04-12 05:36 | 6.66211 | 3.78204 | 15608 ft | 301 kts | 123° |
| 2026-04-12 05:36 | 6.64832 | 3.79784 | 15199 ft | 302 kts | 139° |
| 2026-04-12 05:37 | 6.63137 | 3.81015 | 14853 ft | 299 kts | 143° |
| 2026-04-12 05:37 | 6.61420 | 3.82182 | 14485 ft | 297 kts | 143° |
| 2026-04-12 05:37 | 6.59703 | 3.83339 | 14150 ft | 299 kts | 143° |
| 2026-04-12 05:37 | 6.57970 | 3.84510 | 13813 ft | 303 kts | 143° |
| 2026-04-12 05:38 | 6.56224 | 3.85693 | 13451 ft | 301 kts | 143° |
| 2026-04-12 05:38 | 6.54471 | 3.86821 | 13066 ft | 299 kts | 151° |
| 2026-04-12 05:38 | 6.52499 | 3.87439 | 12817 ft | 296 kts | 167° |
| 2026-04-12 05:38 | 6.50451 | 3.87608 | 12559 ft | 293 kts | 177° |
| 2026-04-12 05:39 | 6.48431 | 3.87408 | 12303 ft | 291 kts | 188° |
| 2026-04-12 05:39 | 6.46505 | 3.86809 | 12051 ft | 292 kts | 200° |
| 2026-04-12 05:39 | 6.44731 | 3.85760 | 11816 ft | 301 kts | 215° |
| 2026-04-12 05:39 | 6.43225 | 3.84264 | 11585 ft | 309 kts | 230° |
| 2026-04-12 05:40 | 6.42115 | 3.82394 | 11359 ft | 315 kts | 245° |
| 2026-04-12 05:40 | 6.41422 | 3.80304 | 11130 ft | 317 kts | 259° |
| 2026-04-12 05:40 | 6.41294 | 3.78091 | 10892 ft | 318 kts | 277° |
| 2026-04-12 05:40 | 6.41798 | 3.75959 | 10654 ft | 311 kts | 294° |
| 2026-04-12 05:41 | 6.42758 | 3.74066 | 10432 ft | 304 kts | 306° |
| 2026-04-12 05:41 | 6.44059 | 3.72390 | 10193 ft | 298 kts | 320° |
| 2026-04-12 05:41 | 6.45641 | 3.71122 | 9974 ft | 293 kts | 330° |
| 2026-04-12 05:41 | 6.47336 | 3.69993 | 9746 ft | 292 kts | 332° |
| 2026-04-12 05:42 | 6.49041 | 3.68873 | 9550 ft | 295 kts | 331° |
| 2026-04-12 05:42 | 6.50759 | 3.67717 | 9375 ft | 300 kts | 330° |
| 2026-04-12 05:42 | 6.52497 | 3.66527 | 9194 ft | 304 kts | 329° |
| 2026-04-12 05:43 | 6.55918 | 3.63990 | 8805 ft | 307 kts | 322° |
| 2026-04-12 05:43 | 6.57503 | 3.62542 | 8567 ft | 307 kts | 320° |
| 2026-04-12 05:43 | 6.59043 | 3.61090 | 8312 ft | 300 kts | 320° |
| 2026-04-12 05:43 | 6.60553 | 3.59667 | 8065 ft | 293 kts | 320° |
| 2026-04-12 05:44 | 6.62033 | 3.58283 | 7820 ft | 286 kts | 320° |
| 2026-04-12 05:44 | 6.63481 | 3.56940 | 7573 ft | 281 kts | 320° |
| 2026-04-12 05:44 | 6.64894 | 3.55634 | 7371 ft | 269 kts | 320° |
| 2026-04-12 05:44 | 6.66245 | 3.54390 | 7145 ft | 259 kts | 320° |
| 2026-04-12 05:45 | 6.67568 | 3.53175 | 6914 ft | 256 kts | 320° |
| 2026-04-12 05:45 | 6.68886 | 3.51967 | 6680 ft | 256 kts | 320° |
| 2026-04-12 05:45 | 6.70202 | 3.50762 | 6449 ft | 256 kts | 320° |
| 2026-04-12 05:45 | 6.71514 | 3.49561 | 6209 ft | 255 kts | 320° |
| 2026-04-12 05:46 | 6.72829 | 3.48357 | 5970 ft | 257 kts | 320° |
| 2026-04-12 05:46 | 6.74163 | 3.47135 | 5732 ft | 261 kts | 319° |
| 2026-04-12 05:46 | 6.75511 | 3.45899 | 5495 ft | 263 kts | 319° |
| 2026-04-12 05:46 | 6.76839 | 3.44682 | 5254 ft | 260 kts | 319° |
| 2026-04-12 05:47 | 6.78167 | 3.43465 | 5009 ft | 256 kts | 318° |
| 2026-04-12 05:47 | 6.79464 | 3.42277 | 4757 ft | 246 kts | 318° |
| 2026-04-12 05:47 | 6.80700 | 3.41144 | 4498 ft | 235 kts | 318° |
| 2026-04-12 05:47 | 6.81875 | 3.40028 | 4244 ft | 229 kts | 309° |
| 2026-04-12 05:48 | 6.82515 | 3.38602 | 3999 ft | 222 kts | 279° |
| 2026-04-12 05:48 | 6.82595 | 3.37076 | 3779 ft | 215 kts | 268° |
| 2026-04-12 05:48 | 6.82562 | 3.35588 | 3600 ft | 211 kts | 267° |
| 2026-04-12 05:48 | 6.82525 | 3.34121 | 3481 ft | 209 kts | 267° |
| 2026-04-12 05:49 | 6.82355 | 3.32678 | 3482 ft | 210 kts | 246° |
| 2026-04-12 05:49 | 6.81364 | 3.31638 | 3502 ft | 210 kts | 203° |
| 2026-04-12 05:49 | 6.79933 | 3.31350 | 3500 ft | 211 kts | 187° |
| 2026-04-12 05:49 | 6.78471 | 3.31180 | 3497 ft | 211 kts | 185° |
| 2026-04-12 05:50 | 6.77006 | 3.31109 | 3438 ft | 209 kts | 181° |
| 2026-04-12 05:50 | 6.75595 | 3.31107 | 3223 ft | 197 kts | 180° |
| 2026-04-12 05:50 | 6.74264 | 3.31123 | 2985 ft | 186 kts | 180° |
| 2026-04-12 05:50 | 6.73002 | 3.31140 | 2764 ft | 176 kts | 181° |
| 2026-04-12 05:51 | 6.71795 | 3.31155 | 2543 ft | 170 kts | 181° |
| 2026-04-12 05:51 | 6.70633 | 3.31169 | 2321 ft | 164 kts | 181° |
| 2026-04-12 05:51 | 6.69510 | 3.31183 | 2113 ft | 158 kts | 181° |
| 2026-04-12 05:51 | 6.68436 | 3.31196 | 1916 ft | 151 kts | 182° |
| 2026-04-12 05:52 | 6.67407 | 3.31209 | 1728 ft | 146 kts | 182° |
| 2026-04-12 05:52 | 6.66385 | 3.31220 | 1551 ft | 149 kts | 181° |
| 2026-04-12 05:52 | 6.65340 | 3.31233 | 1358 ft | 150 kts | 181° |
| 2026-04-12 05:52 | 6.64309 | 3.31245 | 1153 ft | 150 kts | 181° |
| 2026-04-12 05:53 | 6.63323 | 3.31257 | 985 ft | 151 kts | 181° |
| 2026-04-12 05:53 | 6.62265 | 3.31270 | 794 ft | 153 kts | 181° |
| 2026-04-12 05:53 | 6.61201 | 3.31285 | 597 ft | 153 kts | 180° |
| 2026-04-12 05:53 | 6.60143 | 3.31294 | 362 ft | 150 kts | 180° |
| 2026-04-12 05:54 | 6.59096 | 3.31310 | 193 ft | 152 kts | 180° |
| 2026-04-12 05:54 | 6.58047 | 3.31323 | 65 ft | 145 kts | 180° |
| 2026-04-12 05:54 | 6.57179 | 3.31333 | 64 ft | 96 kts | 179° |
| 2026-04-12 05:54 | 6.56666 | 3.31346 | 68 ft | 52 kts | 172° |
| 2026-04-12 05:55 | 6.56425 | 3.31448 | 64 ft | 21 kts | 138° |
| 2026-04-12 05:55 | 6.56437 | 3.31540 | 65 ft | 14 kts | 28° |
| 2026-04-12 05:55 | 6.56511 | 3.31545 | 67 ft | 9 kts | 359° |
| 2026-04-12 05:55 | 6.56573 | 3.31544 | 68 ft | 9 kts | 359° |
| 2026-04-12 05:56 | 6.56634 | 3.31544 | 68 ft | 9 kts | 359° |
| 2026-04-12 05:56 | 6.56707 | 3.31543 | 69 ft | 12 kts | 359° |
| 2026-04-12 05:56 | 6.56805 | 3.31541 | 62 ft | 17 kts | 359° |
| 2026-04-12 05:56 | 6.56939 | 3.31540 | 69 ft | 22 kts | 359° |
| 2026-04-12 05:57 | 6.57111 | 3.31538 | 65 ft | 28 kts | 359° |
| 2026-04-12 05:57 | 6.57323 | 3.31535 | 61 ft | 33 kts | 359° |
| 2026-04-12 05:57 | 6.57562 | 3.31532 | 57 ft | 36 kts | 359° |
| 2026-04-12 05:57 | 6.57813 | 3.31529 | 57 ft | 36 kts | 359° |
| 2026-04-12 05:58 | 6.58032 | 3.31538 | 58 ft | 24 kts | 30° |
| 2026-04-12 05:58 | 6.58098 | 3.31675 | 83 ft | 22 kts | 67° |
| 2026-04-12 05:58 | 6.58156 | 3.31812 | 92 ft | 22 kts | 68° |
| 2026-04-12 05:58 | 6.58218 | 3.31955 | 95 ft | 23 kts | 66° |
| 2026-04-12 05:59 | 6.58275 | 3.32112 | 93 ft | 24 kts | 88° |
| 2026-04-12 05:59 | 6.58224 | 3.32266 | 94 ft | 23 kts | 112° |
| 2026-04-12 05:59 | 6.58167 | 3.32408 | 94 ft | 21 kts | 112° |
| 2026-04-12 05:59 | 6.58114 | 3.32519 | 94 ft | 11 kts | 151° |
| 2026-04-12 06:00 | 6.58037 | 3.32493 | 94 ft | 13 kts | 204° |
| 2026-04-12 06:00 | 6.57947 | 3.32455 | 93 ft | 15 kts | 202° |
| 2026-04-12 06:00 | 6.57868 | 3.32405 | 95 ft | 11 kts | 216° |
| 2026-04-12 06:00 | 6.57813 | 3.32412 | 95 ft | 5 kts | 162° |
| 2026-04-12 06:01 | 6.57800 | 3.32416 | 94 ft | 0 kts | 163° |